Latest Weather Observations for Fort Denison

IDN60901

Issued at 9:51 pm EST Tuesday 24 May 2022 (issued every 10 minutes, with the page automatically refreshed every 10 minutes)

About weather observations | Map of Sydney area stations | Latest observations for Sydney area | Other Formats
Station Details ID: 066022 Name: FORT DENISON Lat: -33.86 Lon: 151.23 Height: 5.0 m
Data from the previous 72 hours. | See also: Recent months for locations in New South Wales
Date/Time
EST
Temp
°C
App
Temp
°C
Dew
Point
°C
Rel
Hum
%
Delta-T
°C
Wind Press
QNH
hPa
Press
MSL
hPa
Rain since
9am
mm
Dir  Spd
km/h
Gust
km/h
Spd
kts
Gust
kts
24/09:30pm - - - - - W 13 15 7 8 - - -
24/09:00pm - - - - - WNW 15 17 8 9 - - -
24/08:30pm - - - - - WNW 13 15 7 8 - - -
24/08:00pm - - - - - W 11 17 6 9 - - -
24/07:30pm - - - - - NW 6 9 3 5 - - -
24/07:00pm - - - - - S 2 6 1 3 - - -
24/06:30pm - - - - - NNW 4 6 2 3 - - -
24/06:00pm - - - - - N 2 7 1 4 - - -
24/05:30pm - - - - - CALM 0 4 0 2 - - -
24/05:00pm - - - - - S 2 4 1 2 - - -
24/04:30pm - - - - - S 2 6 1 3 - - -
24/04:00pm - - - - - N 2 4 1 2 - - -
24/03:30pm - - - - - ENE 2 6 1 3 - - -
24/03:00pm - - - - - NNW 2 6 1 3 - - -
24/02:30pm - - - - - NE 4 7 2 4 - - -
24/02:00pm - - - - - ENE 6 9 3 5 - - -
24/01:30pm - - - - - SE 4 6 2 3 - - -
24/01:00pm - - - - - SSW 4 9 2 5 - - -
24/12:30pm - - - - - NNE 4 6 2 3 - - -
24/12:00pm - - - - - NW 4 7 2 4 - - -
24/11:30am - - - - - WNW 11 13 6 7 - - -
24/11:00am - - - - - W 7 11 4 6 - - -
24/10:30am - - - - - W 15 19 8 10 - - -
24/10:00am - - - - - W 17 20 9 11 - - -
24/09:30am - - - - - W 15 19 8 10 - - -
24/09:00am - - - - - W 17 20 9 11 - - -
24/08:30am - - - - - WNW 19 22 10 12 - - -
24/08:00am - - - - - WNW 19 22 10 12 - - -
24/07:30am - - - - - W 19 22 10 12 - - -
24/07:00am - - - - - WNW 15 17 8 9 - - -
24/06:30am - - - - - WNW 13 19 7 10 - - -
24/06:00am - - - - - W 15 19 8 10 - - -
24/05:30am - - - - - W 9 11 5 6 - - -
24/05:00am - - - - - NNW 11 15 6 8 - - -
24/04:30am - - - - - W 9 13 5 7 - - -
24/04:00am - - - - - W 6 9 3 5 - - -
24/03:30am - - - - - WSW 7 11 4 6 - - -
24/03:00am - - - - - WNW 13 19 7 10 - - -
24/02:30am - - - - - NW 7 20 4 11 - - -
24/02:00am - - - - - NNW 19 26 10 14 - - -
24/01:30am - - - - - W 20 26 11 14 - - -
24/01:00am - - - - - WNW 17 19 9 10 - - -
24/12:30am - - - - - WNW 19 22 10 12 - - -
24/12:00am - - - - - W 17 20 9 11 - - -
 
Date/Time
EST
Temp
°C
App
Temp
°C
Dew
Point
°C
Rel
Hum
%
Delta-T
°C
Wind Press
QNH
hPa
Press
MSL
hPa
Rain since
9am
mm
Dir  Spd
km/h
Gust
km/h
Spd
kts
Gust
kts
23/11:30pm - - - - - W 17 20 9 11 - - -
23/11:00pm - - - - - W 15 17 8 9 - - -
23/10:30pm - - - - - WNW 11 15 6 8 - - -
23/10:00pm - - - - - W 11 15 6 8 - - -
23/09:30pm - - - - - S 7 11 4 6 - - -
23/09:00pm - - - - - SSW 9 13 5 7 - - -
23/08:30pm - - - - - S 11 15 6 8 - - -
23/08:00pm - - - - - SSW 7 11 4 6 - - -
23/07:30pm - - - - - S 7 11 4 6 - - -
23/07:00pm - - - - - SSW 4 7 2 4 - - -
23/06:30pm - - - - - SSE 11 17 6 9 - - -
23/06:00pm - - - - - S 11 19 6 10 - - -
23/05:30pm - - - - - SSW 13 19 7 10 - - -
23/05:00pm - - - - - S 11 15 6 8 - - -
23/04:30pm - - - - - SSW 9 13 5 7 - - -
23/04:00pm - - - - - S 7 11 4 6 - - -
23/03:30pm - - - - - ESE 7 13 4 7 - - -
23/03:00pm - - - - - ESE 17 20 9 11 - - -
23/02:30pm - - - - - E 17 19 9 10 - - -
23/02:00pm - - - - - E 24 32 13 17 - - -
23/01:30pm - - - - - ESE 15 22 8 12 - - -
23/01:00pm - - - - - NE 6 9 3 5 - - -
23/12:30pm - - - - - NE 9 19 5 10 - - -
23/12:00pm - - - - - WSW 6 9 3 5 - - -
23/11:30am - - - - - S 9 17 5 9 - - -
23/11:00am - - - - - W 11 13 6 7 - - -
23/10:30am - - - - - SSE 9 15 5 8 - - -
23/10:00am - - - - - W 9 15 5 8 - - -
23/09:30am - - - - - SW 11 15 6 8 - - -
23/09:00am - - - - - WSW 6 11 3 6 - - -
23/08:30am - - - - - W 20 26 11 14 - - -
23/08:00am - - - - - WNW 20 26 11 14 - - -
23/07:30am - - - - - W 19 22 10 12 - - -
23/07:00am - - - - - W 17 19 9 10 - - -
23/06:30am - - - - - W 15 19 8 10 - - -
23/06:00am - - - - - W 17 20 9 11 - - -
23/05:30am - - - - - W 17 22 9 12 - - -
23/05:00am - - - - - W 17 20 9 11 - - -
23/04:30am - - - - - WNW 17 19 9 10 - - -
23/04:00am - - - - - W 13 19 7 10 - - -
23/03:30am - - - - - W 17 22 9 12 - - -
23/03:00am - - - - - WNW 13 19 7 10 - - -
23/02:30am - - - - - ESE 4 9 2 5 - - -
23/02:00am - - - - - NNW 9 15 5 8 - - -
23/01:30am - - - - - W 11 17 6 9 - - -
23/01:00am - - - - - NNW 4 7 2 4 - - -
23/12:30am - - - - - NNE 7 11 4 6 - - -
23/12:00am - - - - - SW 9 17 5 9 - - -
 
Date/Time
EST
Temp
°C
App
Temp
°C
Dew
Point
°C
Rel
Hum
%
Delta-T
°C
Wind Press
QNH
hPa
Press
MSL
hPa
Rain since
9am
mm
Dir  Spd
km/h
Gust
km/h
Spd
kts
Gust
kts
22/11:30pm - - - - - SW 11 17 6 9 - - -
22/11:00pm - - - - - SSW 13 22 7 12 - - -
22/10:30pm - - - - - SSW 17 24 9 13 - - -
22/10:00pm - - - - - SSW 17 22 9 12 - - -
22/09:30pm - - - - - SW 11 17 6 9 - - -
22/09:00pm - - - - - SW 9 20 5 11 - - -
22/08:30pm - - - - - SSW 15 20 8 11 - - -
22/08:00pm - - - - - NW 13 19 7 10 - - -
22/07:30pm - - - - - NNW 13 19 7 10 - - -
22/07:00pm - - - - - SSW 17 26 9 14 - - -
22/06:30pm - - - - - SSW 17 26 9 14 - - -
22/06:00pm - - - - - SSW 13 20 7 11 - - -
22/05:30pm - - - - - SE 9 17 5 9 - - -
22/05:00pm - - - - - SE 13 19 7 10 - - -
22/04:30pm - - - - - SE 13 20 7 11 - - -
22/04:00pm - - - - - SE 13 20 7 11 - - -
22/03:30pm - - - - - SE 15 24 8 13 - - -
22/03:00pm - - - - - SE 15 24 8 13 - - -
22/02:30pm - - - - - SE 15 22 8 12 - - -
22/02:00pm - - - - - SE 13 20 7 11 - - -
22/01:30pm - - - - - SSE 13 20 7 11 - - -
22/01:00pm - - - - - SSE 13 20 7 11 - - -
22/12:30pm - - - - - SSE 6 15 3 8 - - -
22/12:00pm - - - - - WSW 7 11 4 6 - - -
22/11:30am - - - - - NNW 6 9 3 5 - - -
22/11:00am - - - - - WNW 11 15 6 8 - - -
22/10:30am - - - - - W 15 19 8 10 - - -
22/10:00am - - - - - WNW 15 20 8 11 - - -
22/09:30am - - - - - WNW 17 20 9 11 - - -
22/09:00am - - - - - SW 11 17 6 9 - - -
22/08:30am - - - - - SE 13 28 7 15 - - -
22/08:00am - - - - - WNW 22 33 12 18 - - -
22/07:30am - - - - - WNW 13 19 7 10 - - -
22/07:00am - - - - - W 15 17 8 9 - - -
22/06:30am - - - - - WNW 11 17 6 9 - - -
22/06:00am - - - - - NW 13 15 7 8 - - -
22/05:30am - - - - - W 19 22 10 12 - - -
22/05:00am - - - - - W 17 20 9 11 - - -
22/04:30am - - - - - W 17 20 9 11 - - -
22/04:00am - - - - - WNW 13 19 7 10 - - -
22/03:30am - - - - - W 13 15 7 8 - - -
22/03:00am - - - - - W 4 7 2 4 - - -
22/02:30am - - - - - WSW 7 11 4 6 - - -
22/02:00am - - - - - W 17 22 9 12 - - -
22/01:30am - - - - - WNW 17 20 9 11 - - -
22/01:00am - - - - - W 19 22 10 12 - - -
22/12:30am - - - - - W 19 20 10 11 - - -
22/12:00am - - - - - W 17 20 9 11 - - -
 
Date/Time
EST
Temp
°C
App
Temp
°C
Dew
Point
°C
Rel
Hum
%
Delta-T
°C
Wind Press
QNH
hPa
Press
MSL
hPa
Rain since
9am
mm
Dir  Spd
km/h
Gust
km/h
Spd
kts
Gust
kts
21/11:30pm - - - - - W 20 24 11 13 - - -
21/11:00pm - - - - - W 17 19 9 10 - - -
21/10:30pm - - - - - W 19 22 10 12 - - -
21/10:00pm - - - - - WNW 15 19 8 10 - - -

Latest Capital City Observations: Canberra | Sydney | Melbourne | Brisbane | Adelaide | Perth | Hobart | Darwin

Other formats

Comma delimited format used in spreadsheet applications
http://www.bom.gov.au/fwo/IDN60901/IDN60901.94769.axf

JavaScript Object Notation format (JSON) in row-major order
http://www.bom.gov.au/fwo/IDN60901/IDN60901.94769.json

Data quality

Most of these data are generated automatically and are frequently updated. Quality checks on data are not normally performed. It is possible for incorrect values to appear. Refer to information at About Latest Weather Observations and please check the disclaimer before using these data.